sensor_id;sensor_type;location;lat;lon;timestamp;P1;durP1;ratioP1;P2;durP2;ratioP2
46753;SDS011;32500;50.620;3.400;2023-01-15T00:01:31;68.10;;;48.65;;
46753;SDS011;32500;50.620;3.400;2023-01-15T00:03:59;66.75;;;48.17;;
46753;SDS011;32500;50.620;3.400;2023-01-15T00:06:25;68.30;;;48.53;;
46753;SDS011;32500;50.620;3.400;2023-01-15T00:08:52;68.45;;;48.25;;
46753;SDS011;32500;50.620;3.400;2023-01-15T00:11:18;66.45;;;48.15;;
46753;SDS011;32500;50.620;3.400;2023-01-15T00:13:44;68.43;;;48.05;;
46753;SDS011;32500;50.620;3.400;2023-01-15T00:16:14;66.32;;;48.13;;
46753;SDS011;32500;50.620;3.400;2023-01-15T00:18:51;67.57;;;48.45;;
46753;SDS011;32500;50.620;3.400;2023-01-15T00:21:21;66.53;;;48.08;;
46753;SDS011;32500;50.620;3.400;2023-01-15T00:23:48;65.53;;;47.92;;
46753;SDS011;32500;50.620;3.400;2023-01-15T00:26:33;66.88;;;48.05;;
46753;SDS011;32500;50.620;3.400;2023-01-15T00:29:18;68.05;;;48.20;;
46753;SDS011;32500;50.620;3.400;2023-01-15T00:31:50;68.45;;;48.28;;
46753;SDS011;32500;50.620;3.400;2023-01-15T00:34:21;67.78;;;48.45;;
46753;SDS011;32500;50.620;3.400;2023-01-15T00:36:47;67.80;;;48.40;;
46753;SDS011;32500;50.620;3.400;2023-01-15T00:39:12;67.50;;;48.15;;
46753;SDS011;32500;50.620;3.400;2023-01-15T00:41:38;66.30;;;48.25;;
46753;SDS011;32500;50.620;3.400;2023-01-15T00:44:04;66.05;;;48.08;;
46753;SDS011;32500;50.620;3.400;2023-01-15T00:46:29;67.85;;;48.22;;
46753;SDS011;32500;50.620;3.400;2023-01-15T00:48:55;67.47;;;48.15;;
46753;SDS011;32500;50.620;3.400;2023-01-15T00:51:20;68.28;;;48.13;;
46753;SDS011;32500;50.620;3.400;2023-01-15T00:53:46;67.07;;;47.80;;
46753;SDS011;32500;50.620;3.400;2023-01-15T00:56:12;66.13;;;48.08;;
46753;SDS011;32500;50.620;3.400;2023-01-15T00:58:37;67.07;;;47.72;;
46753;SDS011;32500;50.620;3.400;2023-01-15T01:01:03;69.32;;;48.35;;
46753;SDS011;32500;50.620;3.400;2023-01-15T01:03:29;66.95;;;48.13;;
46753;SDS011;32500;50.620;3.400;2023-01-15T01:05:58;67.88;;;48.33;;
46753;SDS011;32500;50.620;3.400;2023-01-15T01:08:25;67.68;;;48.30;;
46753;SDS011;32500;50.620;3.400;2023-01-15T01:10:59;65.90;;;48.05;;
46753;SDS011;32500;50.620;3.400;2023-01-15T01:13:36;67.13;;;48.08;;
46753;SDS011;32500;50.620;3.400;2023-01-15T01:16:02;66.47;;;48.15;;
46753;SDS011;32500;50.620;3.400;2023-01-15T01:18:29;65.75;;;47.83;;
46753;SDS011;32500;50.620;3.400;2023-01-15T01:20:54;67.15;;;48.15;;
46753;SDS011;32500;50.620;3.400;2023-01-15T01:23:21;66.15;;;48.13;;
46753;SDS011;32500;50.620;3.400;2023-01-15T01:25:48;67.30;;;48.35;;
46753;SDS011;32500;50.620;3.400;2023-01-15T01:28:14;67.70;;;48.13;;
46753;SDS011;32500;50.620;3.400;2023-01-15T01:30:39;68.18;;;48.22;;
46753;SDS011;32500;50.620;3.400;2023-01-15T01:33:05;67.50;;;48.05;;
46753;SDS011;32500;50.620;3.400;2023-01-15T01:35:31;65.95;;;48.22;;
46753;SDS011;32500;50.620;3.400;2023-01-15T01:37:57;66.55;;;48.22;;
46753;SDS011;32500;50.620;3.400;2023-01-15T01:40:23;66.13;;;48.20;;
46753;SDS011;32500;50.620;3.400;2023-01-15T01:42:49;68.20;;;48.17;;
46753;SDS011;32500;50.620;3.400;2023-01-15T01:45:19;66.75;;;48.15;;
46753;SDS011;32500;50.620;3.400;2023-01-15T01:47:49;67.82;;;48.15;;
46753;SDS011;32500;50.620;3.400;2023-01-15T01:50:19;65.63;;;47.83;;
46753;SDS011;32500;50.620;3.400;2023-01-15T01:52:47;66.53;;;48.00;;
46753;SDS011;32500;50.620;3.400;2023-01-15T01:55:18;66.80;;;48.10;;
46753;SDS011;32500;50.620;3.400;2023-01-15T01:57:46;66.38;;;47.90;;
46753;SDS011;32500;50.620;3.400;2023-01-15T02:00:14;67.07;;;48.00;;
46753;SDS011;32500;50.620;3.400;2023-01-15T02:02:41;66.57;;;47.85;;
46753;SDS011;32500;50.620;3.400;2023-01-15T02:05:11;66.00;;;48.05;;
46753;SDS011;32500;50.620;3.400;2023-01-15T02:07:44;66.65;;;47.97;;
46753;SDS011;32500;50.620;3.400;2023-01-15T02:10:13;66.55;;;48.33;;
46753;SDS011;32500;50.620;3.400;2023-01-15T02:12:40;67.72;;;48.58;;
46753;SDS011;32500;50.620;3.400;2023-01-15T02:15:13;65.70;;;47.97;;
46753;SDS011;32500;50.620;3.400;2023-01-15T02:17:45;65.13;;;48.03;;
46753;SDS011;32500;50.620;3.400;2023-01-15T02:28:15;65.80;;;47.80;;
46753;SDS011;32500;50.620;3.400;2023-01-15T02:30:44;67.45;;;47.95;;
46753;SDS011;32500;50.620;3.400;2023-01-15T02:33:24;66.35;;;47.83;;
46753;SDS011;32500;50.620;3.400;2023-01-15T02:35:57;66.97;;;48.22;;
46753;SDS011;32500;50.620;3.400;2023-01-15T02:38:26;66.30;;;48.15;;
46753;SDS011;32500;50.620;3.400;2023-01-15T02:40:57;65.55;;;47.80;;
46753;SDS011;32500;50.620;3.400;2023-01-15T02:43:26;67.00;;;47.97;;
46753;SDS011;32500;50.620;3.400;2023-01-15T02:45:56;66.53;;;48.30;;
46753;SDS011;32500;50.620;3.400;2023-01-15T02:48:25;66.80;;;48.03;;
46753;SDS011;32500;50.620;3.400;2023-01-15T02:50:57;65.40;;;47.72;;
46753;SDS011;32500;50.620;3.400;2023-01-15T02:53:27;65.88;;;47.95;;
46753;SDS011;32500;50.620;3.400;2023-01-15T02:55:56;65.15;;;47.92;;
46753;SDS011;32500;50.620;3.400;2023-01-15T02:58:28;65.72;;;47.85;;
46753;SDS011;32500;50.620;3.400;2023-01-15T03:00:57;65.32;;;47.90;;
46753;SDS011;32500;50.620;3.400;2023-01-15T03:08:56;64.68;;;47.58;;
46753;SDS011;32500;50.620;3.400;2023-01-15T03:11:22;66.85;;;48.05;;
46753;SDS011;32500;50.620;3.400;2023-01-15T03:14:05;68.35;;;48.08;;
46753;SDS011;32500;50.620;3.400;2023-01-15T03:16:49;66.55;;;48.05;;
46753;SDS011;32500;50.620;3.400;2023-01-15T03:19:22;67.10;;;48.10;;
46753;SDS011;32500;50.620;3.400;2023-01-15T03:22:08;67.10;;;47.95;;
46753;SDS011;32500;50.620;3.400;2023-01-15T03:24:42;65.85;;;47.83;;
46753;SDS011;32500;50.620;3.400;2023-01-15T03:27:14;66.65;;;47.83;;
46753;SDS011;32500;50.620;3.400;2023-01-15T03:30:03;65.80;;;47.85;;
46753;SDS011;32500;50.620;3.400;2023-01-15T03:32:28;65.93;;;47.70;;
46753;SDS011;32500;50.620;3.400;2023-01-15T03:34:55;65.40;;;47.97;;
46753;SDS011;32500;50.620;3.400;2023-01-15T03:37:23;65.50;;;47.72;;
46753;SDS011;32500;50.620;3.400;2023-01-15T03:39:51;65.32;;;47.78;;
46753;SDS011;32500;50.620;3.400;2023-01-15T03:42:22;64.70;;;47.63;;
46753;SDS011;32500;50.620;3.400;2023-01-15T03:50:01;65.50;;;47.72;;
46753;SDS011;32500;50.620;3.400;2023-01-15T03:52:51;64.82;;;47.65;;
46753;SDS011;32500;50.620;3.400;2023-01-15T03:55:22;65.43;;;47.72;;
46753;SDS011;32500;50.620;3.400;2023-01-15T03:58:08;65.10;;;47.92;;
46753;SDS011;32500;50.620;3.400;2023-01-15T04:00:47;65.03;;;47.80;;
46753;SDS011;32500;50.620;3.400;2023-01-15T04:03:16;65.28;;;47.75;;
46753;SDS011;32500;50.620;3.400;2023-01-15T04:05:46;66.88;;;47.97;;
46753;SDS011;32500;50.620;3.400;2023-01-15T04:08:14;65.30;;;47.75;;
46753;SDS011;32500;50.620;3.400;2023-01-15T04:10:53;65.10;;;47.42;;
46753;SDS011;32500;50.620;3.400;2023-01-15T04:13:21;65.90;;;47.65;;
46753;SDS011;32500;50.620;3.400;2023-01-15T04:15:47;66.20;;;47.92;;
46753;SDS011;32500;50.620;3.400;2023-01-15T04:18:13;67.95;;;47.58;;
46753;SDS011;32500;50.620;3.400;2023-01-15T04:20:39;66.80;;;47.83;;
46753;SDS011;32500;50.620;3.400;2023-01-15T04:23:04;65.05;;;47.63;;
46753;SDS011;32500;50.620;3.400;2023-01-15T04:25:30;64.35;;;47.58;;
46753;SDS011;32500;50.620;3.400;2023-01-15T04:27:56;65.68;;;47.97;;
46753;SDS011;32500;50.620;3.400;2023-01-15T04:30:21;66.38;;;47.83;;
46753;SDS011;32500;50.620;3.400;2023-01-15T04:32:47;66.25;;;47.70;;
46753;SDS011;32500;50.620;3.400;2023-01-15T04:35:14;65.25;;;47.75;;
46753;SDS011;32500;50.620;3.400;2023-01-15T04:37:40;65.43;;;47.53;;
46753;SDS011;32500;50.620;3.400;2023-01-15T04:40:06;65.88;;;47.97;;
46753;SDS011;32500;50.620;3.400;2023-01-15T04:42:32;64.90;;;47.72;;
46753;SDS011;32500;50.620;3.400;2023-01-15T04:45:16;65.20;;;47.90;;
46753;SDS011;32500;50.620;3.400;2023-01-15T04:47:42;64.40;;;47.70;;
46753;SDS011;32500;50.620;3.400;2023-01-15T04:50:08;65.32;;;47.75;;
46753;SDS011;32500;50.620;3.400;2023-01-15T04:52:35;65.03;;;47.58;;
46753;SDS011;32500;50.620;3.400;2023-01-15T04:55:01;64.38;;;47.33;;
46753;SDS011;32500;50.620;3.400;2023-01-15T04:57:26;65.13;;;47.58;;
46753;SDS011;32500;50.620;3.400;2023-01-15T04:59:52;64.90;;;47.47;;
46753;SDS011;32500;50.620;3.400;2023-01-15T05:02:18;64.85;;;47.72;;
46753;SDS011;32500;50.620;3.400;2023-01-15T05:04:43;65.38;;;47.63;;
46753;SDS011;32500;50.620;3.400;2023-01-15T05:07:09;65.70;;;47.58;;
46753;SDS011;32500;50.620;3.400;2023-01-15T05:09:35;65.93;;;47.78;;
46753;SDS011;32500;50.620;3.400;2023-01-15T05:12:00;66.32;;;47.83;;
46753;SDS011;32500;50.620;3.400;2023-01-15T05:14:26;65.30;;;48.03;;
46753;SDS011;32500;50.620;3.400;2023-01-15T05:16:52;64.70;;;47.65;;
46753;SDS011;32500;50.620;3.400;2023-01-15T05:19:18;65.30;;;47.35;;
46753;SDS011;32500;50.620;3.400;2023-01-15T05:21:44;65.03;;;47.65;;
46753;SDS011;32500;50.620;3.400;2023-01-15T05:24:11;65.35;;;47.63;;
46753;SDS011;32500;50.620;3.400;2023-01-15T05:26:39;64.57;;;47.42;;
46753;SDS011;32500;50.620;3.400;2023-01-15T05:29:05;64.78;;;47.53;;
46753;SDS011;32500;50.620;3.400;2023-01-15T05:31:31;65.20;;;47.95;;
46753;SDS011;32500;50.620;3.400;2023-01-15T05:34:00;65.03;;;47.60;;
46753;SDS011;32500;50.620;3.400;2023-01-15T05:36:27;64.68;;;47.75;;
46753;SDS011;32500;50.620;3.400;2023-01-15T05:38:54;65.50;;;47.65;;
46753;SDS011;32500;50.620;3.400;2023-01-15T05:41:25;64.43;;;47.45;;
46753;SDS011;32500;50.620;3.400;2023-01-15T05:44:11;64.63;;;47.60;;
46753;SDS011;32500;50.620;3.400;2023-01-15T05:46:38;64.72;;;47.53;;
46753;SDS011;32500;50.620;3.400;2023-01-15T05:49:06;65.55;;;47.58;;
46753;SDS011;32500;50.620;3.400;2023-01-15T05:51:34;65.78;;;47.60;;
46753;SDS011;32500;50.620;3.400;2023-01-15T05:54:00;65.50;;;47.72;;
46753;SDS011;32500;50.620;3.400;2023-01-15T05:56:27;64.57;;;47.63;;
46753;SDS011;32500;50.620;3.400;2023-01-15T05:58:52;64.80;;;47.47;;
46753;SDS011;32500;50.620;3.400;2023-01-15T06:01:18;66.15;;;47.75;;
46753;SDS011;32500;50.620;3.400;2023-01-15T06:03:44;63.70;;;47.45;;
46753;SDS011;32500;50.620;3.400;2023-01-15T06:06:12;63.80;;;47.38;;
46753;SDS011;32500;50.620;3.400;2023-01-15T06:08:40;65.20;;;47.53;;
46753;SDS011;32500;50.620;3.400;2023-01-15T06:11:07;64.95;;;47.75;;
46753;SDS011;32500;50.620;3.400;2023-01-15T06:13:32;65.13;;;47.63;;
46753;SDS011;32500;50.620;3.400;2023-01-15T06:15:59;64.60;;;47.35;;
46753;SDS011;32500;50.620;3.400;2023-01-15T06:18:24;67.30;;;47.75;;
46753;SDS011;32500;50.620;3.400;2023-01-15T06:20:50;64.20;;;47.25;;
46753;SDS011;32500;50.620;3.400;2023-01-15T06:23:16;64.20;;;47.22;;
46753;SDS011;32500;50.620;3.400;2023-01-15T06:25:43;64.07;;;47.53;;
46753;SDS011;32500;50.620;3.400;2023-01-15T06:28:09;63.97;;;47.38;;
46753;SDS011;32500;50.620;3.400;2023-01-15T06:30:36;63.47;;;47.20;;
46753;SDS011;32500;50.620;3.400;2023-01-15T06:33:03;65.57;;;47.78;;
46753;SDS011;32500;50.620;3.400;2023-01-15T06:35:29;64.65;;;47.53;;
46753;SDS011;32500;50.620;3.400;2023-01-15T06:37:55;64.65;;;47.30;;
46753;SDS011;32500;50.620;3.400;2023-01-15T06:40:20;64.53;;;47.75;;
46753;SDS011;32500;50.620;3.400;2023-01-15T06:42:47;65.50;;;47.53;;
46753;SDS011;32500;50.620;3.400;2023-01-15T06:45:35;64.38;;;47.42;;
46753;SDS011;32500;50.620;3.400;2023-01-15T06:48:21;64.65;;;47.25;;
46753;SDS011;32500;50.620;3.400;2023-01-15T06:50:47;63.90;;;47.22;;
46753;SDS011;32500;50.620;3.400;2023-01-15T06:53:13;64.30;;;47.55;;
46753;SDS011;32500;50.620;3.400;2023-01-15T06:55:39;65.65;;;47.85;;
46753;SDS011;32500;50.620;3.400;2023-01-15T06:58:04;64.13;;;47.53;;
46753;SDS011;32500;50.620;3.400;2023-01-15T07:00:30;65.20;;;47.65;;
46753;SDS011;32500;50.620;3.400;2023-01-15T07:02:58;64.30;;;47.33;;
46753;SDS011;32500;50.620;3.400;2023-01-15T07:05:24;65.32;;;47.45;;
46753;SDS011;32500;50.620;3.400;2023-01-15T07:07:50;65.47;;;47.45;;
46753;SDS011;32500;50.620;3.400;2023-01-15T07:10:16;65.88;;;47.53;;
46753;SDS011;32500;50.620;3.400;2023-01-15T07:12:42;65.30;;;47.72;;
46753;SDS011;32500;50.620;3.400;2023-01-15T07:15:07;64.35;;;47.50;;
46753;SDS011;32500;50.620;3.400;2023-01-15T07:17:33;65.10;;;47.58;;
46753;SDS011;32500;50.620;3.400;2023-01-15T07:19:59;65.28;;;47.35;;
46753;SDS011;32500;50.620;3.400;2023-01-15T07:22:25;65.45;;;47.65;;
46753;SDS011;32500;50.620;3.400;2023-01-15T07:24:50;64.60;;;47.40;;
46753;SDS011;32500;50.620;3.400;2023-01-15T07:27:16;64.38;;;47.45;;
46753;SDS011;32500;50.620;3.400;2023-01-15T07:29:42;65.22;;;47.70;;
46753;SDS011;32500;50.620;3.400;2023-01-15T07:32:08;65.03;;;47.35;;
46753;SDS011;32500;50.620;3.400;2023-01-15T07:34:35;66.05;;;47.47;;
46753;SDS011;32500;50.620;3.400;2023-01-15T07:37:00;63.80;;;47.33;;
46753;SDS011;32500;50.620;3.400;2023-01-15T07:39:26;64.75;;;47.45;;
46753;SDS011;32500;50.620;3.400;2023-01-15T07:42:01;64.45;;;47.25;;
46753;SDS011;32500;50.620;3.400;2023-01-15T07:44:46;64.40;;;47.40;;
46753;SDS011;32500;50.620;3.400;2023-01-15T07:47:30;63.95;;;47.13;;
46753;SDS011;32500;50.620;3.400;2023-01-15T07:50:15;64.28;;;47.60;;
46753;SDS011;32500;50.620;3.400;2023-01-15T07:52:43;64.03;;;47.45;;
46753;SDS011;32500;50.620;3.400;2023-01-15T07:55:09;65.20;;;47.33;;
46753;SDS011;32500;50.620;3.400;2023-01-15T07:57:37;63.83;;;47.13;;
46753;SDS011;32500;50.620;3.400;2023-01-15T08:00:04;65.43;;;47.50;;
46753;SDS011;32500;50.620;3.400;2023-01-15T08:02:31;65.35;;;47.15;;
46753;SDS011;32500;50.620;3.400;2023-01-15T08:04:57;65.95;;;47.55;;
46753;SDS011;32500;50.620;3.400;2023-01-15T08:07:22;64.43;;;47.33;;
46753;SDS011;32500;50.620;3.400;2023-01-15T08:09:48;64.68;;;47.45;;
46753;SDS011;32500;50.620;3.400;2023-01-15T08:12:14;64.70;;;47.72;;
46753;SDS011;32500;50.620;3.400;2023-01-15T08:14:59;63.58;;;47.42;;
46753;SDS011;32500;50.620;3.400;2023-01-15T08:17:41;65.47;;;47.72;;
46753;SDS011;32500;50.620;3.400;2023-01-15T08:20:21;64.13;;;47.20;;
46753;SDS011;32500;50.620;3.400;2023-01-15T08:22:49;63.28;;;47.35;;
46753;SDS011;32500;50.620;3.400;2023-01-15T08:25:16;64.20;;;47.47;;
46753;SDS011;32500;50.620;3.400;2023-01-15T08:27:43;64.80;;;47.90;;
46753;SDS011;32500;50.620;3.400;2023-01-15T08:30:26;64.90;;;47.67;;
46753;SDS011;32500;50.620;3.400;2023-01-15T08:32:57;64.97;;;47.28;;
46753;SDS011;32500;50.620;3.400;2023-01-15T08:35:24;63.28;;;47.25;;
46753;SDS011;32500;50.620;3.400;2023-01-15T08:37:50;64.90;;;47.53;;
46753;SDS011;32500;50.620;3.400;2023-01-15T08:40:15;65.40;;;47.60;;
46753;SDS011;32500;50.620;3.400;2023-01-15T08:42:41;66.95;;;47.65;;
46753;SDS011;32500;50.620;3.400;2023-01-15T08:45:07;63.95;;;47.53;;
46753;SDS011;32500;50.620;3.400;2023-01-15T08:47:34;65.65;;;47.63;;
46753;SDS011;32500;50.620;3.400;2023-01-15T08:50:01;65.72;;;47.45;;
46753;SDS011;32500;50.620;3.400;2023-01-15T08:52:26;64.50;;;47.70;;
46753;SDS011;32500;50.620;3.400;2023-01-15T08:54:52;64.13;;;47.50;;
46753;SDS011;32500;50.620;3.400;2023-01-15T08:57:18;64.18;;;47.33;;
46753;SDS011;32500;50.620;3.400;2023-01-15T08:59:43;65.40;;;47.38;;
46753;SDS011;32500;50.620;3.400;2023-01-15T09:02:11;64.13;;;47.38;;
46753;SDS011;32500;50.620;3.400;2023-01-15T09:04:39;63.65;;;47.35;;
46753;SDS011;32500;50.620;3.400;2023-01-15T09:07:04;63.92;;;47.40;;
46753;SDS011;32500;50.620;3.400;2023-01-15T09:09:30;63.83;;;47.20;;
46753;SDS011;32500;50.620;3.400;2023-01-15T09:11:57;63.65;;;47.33;;
46753;SDS011;32500;50.620;3.400;2023-01-15T09:14:22;63.60;;;47.17;;
46753;SDS011;32500;50.620;3.400;2023-01-15T09:16:48;65.53;;;47.75;;
46753;SDS011;32500;50.620;3.400;2023-01-15T09:19:14;64.47;;;47.20;;
46753;SDS011;32500;50.620;3.400;2023-01-15T09:21:40;64.70;;;47.40;;
46753;SDS011;32500;50.620;3.400;2023-01-15T09:24:05;64.38;;;47.50;;
46753;SDS011;32500;50.620;3.400;2023-01-15T09:26:33;63.25;;;47.30;;
46753;SDS011;32500;50.620;3.400;2023-01-15T09:29:01;65.22;;;47.53;;
46753;SDS011;32500;50.620;3.400;2023-01-15T09:31:27;64.00;;;47.35;;
46753;SDS011;32500;50.620;3.400;2023-01-15T09:33:53;64.25;;;47.42;;
46753;SDS011;32500;50.620;3.400;2023-01-15T09:36:21;64.10;;;47.47;;
46753;SDS011;32500;50.620;3.400;2023-01-15T09:38:52;64.68;;;47.45;;
46753;SDS011;32500;50.620;3.400;2023-01-15T09:41:19;65.40;;;47.53;;
46753;SDS011;32500;50.620;3.400;2023-01-15T09:47:12;67.38;;;47.85;;
46753;SDS011;32500;50.620;3.400;2023-01-15T09:52:33;65.90;;;47.65;;
46753;SDS011;32500;50.620;3.400;2023-01-15T09:55:28;65.00;;;47.38;;
46753;SDS011;32500;50.620;3.400;2023-01-15T09:58:01;66.70;;;47.67;;
46753;SDS011;32500;50.620;3.400;2023-01-15T10:00:32;64.97;;;47.45;;
46753;SDS011;32500;50.620;3.400;2023-01-15T10:03:06;65.95;;;48.03;;
46753;SDS011;32500;50.620;3.400;2023-01-15T10:08:30;67.03;;;47.75;;
46753;SDS011;32500;50.620;3.400;2023-01-15T10:11:01;66.50;;;47.90;;
46753;SDS011;32500;50.620;3.400;2023-01-15T10:16:08;66.28;;;47.83;;
46753;SDS011;32500;50.620;3.400;2023-01-15T10:18:35;66.80;;;48.10;;
46753;SDS011;32500;50.620;3.400;2023-01-15T10:24:01;68.90;;;47.83;;
46753;SDS011;32500;50.620;3.400;2023-01-15T10:26:39;66.18;;;47.75;;
46753;SDS011;32500;50.620;3.400;2023-01-15T10:46:02;66.60;;;48.25;;
46753;SDS011;32500;50.620;3.400;2023-01-15T10:48:37;68.18;;;48.22;;
46753;SDS011;32500;50.620;3.400;2023-01-15T10:51:20;68.40;;;48.47;;
46753;SDS011;32500;50.620;3.400;2023-01-15T10:59:39;65.88;;;48.08;;
46753;SDS011;32500;50.620;3.400;2023-01-15T11:02:22;68.13;;;48.33;;
46753;SDS011;32500;50.620;3.400;2023-01-15T11:04:49;67.35;;;48.40;;
46753;SDS011;32500;50.620;3.400;2023-01-15T11:07:15;68.28;;;48.55;;
46753;SDS011;32500;50.620;3.400;2023-01-15T11:09:41;66.40;;;48.60;;
46753;SDS011;32500;50.620;3.400;2023-01-15T11:14:47;65.82;;;48.30;;
46753;SDS011;32500;50.620;3.400;2023-01-15T11:17:34;68.65;;;48.65;;
46753;SDS011;32500;50.620;3.400;2023-01-15T11:20:26;67.20;;;48.72;;
46753;SDS011;32500;50.620;3.400;2023-01-15T11:23:06;68.97;;;49.03;;
46753;SDS011;32500;50.620;3.400;2023-01-15T11:25:37;65.80;;;48.40;;
46753;SDS011;32500;50.620;3.400;2023-01-15T11:28:08;67.82;;;48.60;;
46753;SDS011;32500;50.620;3.400;2023-01-15T11:30:39;69.37;;;50.63;;
46753;SDS011;32500;50.620;3.400;2023-01-15T11:33:19;72.95;;;51.47;;
46753;SDS011;32500;50.620;3.400;2023-01-15T11:35:50;73.10;;;53.28;;
46753;SDS011;32500;50.620;3.400;2023-01-15T11:38:22;76.88;;;54.13;;
46753;SDS011;32500;50.620;3.400;2023-01-15T11:40:56;75.88;;;53.83;;
46753;SDS011;32500;50.620;3.400;2023-01-15T11:43:25;76.13;;;54.38;;
46753;SDS011;32500;50.620;3.400;2023-01-15T11:46:45;72.63;;;52.90;;
46753;SDS011;32500;50.620;3.400;2023-01-15T11:49:22;79.18;;;55.75;;
46753;SDS011;32500;50.620;3.400;2023-01-15T11:52:10;76.90;;;55.25;;
46753;SDS011;32500;50.620;3.400;2023-01-15T11:54:42;73.47;;;53.38;;
46753;SDS011;32500;50.620;3.400;2023-01-15T11:57:11;76.90;;;54.05;;
46753;SDS011;32500;50.620;3.400;2023-01-15T11:59:47;74.32;;;53.58;;
46753;SDS011;32500;50.620;3.400;2023-01-15T12:02:20;73.78;;;53.83;;
46753;SDS011;32500;50.620;3.400;2023-01-15T12:05:17;80.28;;;55.17;;
46753;SDS011;32500;50.620;3.400;2023-01-15T12:07:45;75.38;;;53.35;;
46753;SDS011;32500;50.620;3.400;2023-01-15T12:12:54;77.75;;;53.70;;
46753;SDS011;32500;50.620;3.400;2023-01-15T12:21:03;74.03;;;53.42;;
46753;SDS011;32500;50.620;3.400;2023-01-15T12:28:51;76.47;;;54.05;;
46753;SDS011;32500;50.620;3.400;2023-01-15T12:31:25;74.45;;;52.88;;
46753;SDS011;32500;50.620;3.400;2023-01-15T12:34:02;73.75;;;53.38;;
46753;SDS011;32500;50.620;3.400;2023-01-15T12:36:51;76.40;;;52.83;;
46753;SDS011;32500;50.620;3.400;2023-01-15T12:39:28;73.47;;;53.20;;
46753;SDS011;32500;50.620;3.400;2023-01-15T12:42:02;74.27;;;52.33;;
46753;SDS011;32500;50.620;3.400;2023-01-15T12:44:54;73.55;;;51.95;;
46753;SDS011;32500;50.620;3.400;2023-01-15T12:52:53;74.88;;;51.78;;
46753;SDS011;32500;50.620;3.400;2023-01-15T12:55:39;71.82;;;51.50;;
46753;SDS011;32500;50.620;3.400;2023-01-15T12:58:20;72.70;;;51.60;;
46753;SDS011;32500;50.620;3.400;2023-01-15T13:04:02;70.55;;;50.83;;
46753;SDS011;32500;50.620;3.400;2023-01-15T13:06:46;69.90;;;50.65;;
46753;SDS011;32500;50.620;3.400;2023-01-15T13:11:59;67.93;;;50.28;;
46753;SDS011;32500;50.620;3.400;2023-01-15T13:14:25;68.18;;;50.05;;
46753;SDS011;32500;50.620;3.400;2023-01-15T13:16:58;68.82;;;50.22;;
46753;SDS011;32500;50.620;3.400;2023-01-15T13:20:04;70.82;;;50.15;;
46753;SDS011;32500;50.620;3.400;2023-01-15T13:22:41;69.53;;;50.17;;
46753;SDS011;32500;50.620;3.400;2023-01-15T13:25:33;69.55;;;49.60;;
46753;SDS011;32500;50.620;3.400;2023-01-15T13:33:40;70.95;;;50.05;;
46753;SDS011;32500;50.620;3.400;2023-01-15T13:36:17;68.95;;;49.65;;
46753;SDS011;32500;50.620;3.400;2023-01-15T13:38:50;70.05;;;49.53;;
46753;SDS011;32500;50.620;3.400;2023-01-15T13:41:19;68.60;;;49.33;;
46753;SDS011;32500;50.620;3.400;2023-01-15T13:44:22;68.32;;;48.95;;
46753;SDS011;32500;50.620;3.400;2023-01-15T13:47:03;69.95;;;48.65;;
46753;SDS011;32500;50.620;3.400;2023-01-15T13:49:40;67.40;;;49.25;;
46753;SDS011;32500;50.620;3.400;2023-01-15T13:52:33;68.07;;;48.95;;
46753;SDS011;32500;50.620;3.400;2023-01-15T13:55:10;68.75;;;49.50;;
46753;SDS011;32500;50.620;3.400;2023-01-15T13:57:38;68.93;;;49.42;;
46753;SDS011;32500;50.620;3.400;2023-01-15T14:00:06;69.13;;;48.85;;
46753;SDS011;32500;50.620;3.400;2023-01-15T14:02:51;75.93;;;49.45;;
46753;SDS011;32500;50.620;3.400;2023-01-15T14:07:47;69.57;;;49.03;;
46753;SDS011;32500;50.620;3.400;2023-01-15T14:15:24;69.93;;;48.95;;
46753;SDS011;32500;50.620;3.400;2023-01-15T14:18:07;67.65;;;48.85;;
46753;SDS011;32500;50.620;3.400;2023-01-15T14:20:59;70.68;;;49.00;;
46753;SDS011;32500;50.620;3.400;2023-01-15T14:23:50;67.03;;;48.92;;
46753;SDS011;32500;50.620;3.400;2023-01-15T14:35:13;67.93;;;48.80;;
46753;SDS011;32500;50.620;3.400;2023-01-15T14:37:47;67.43;;;48.83;;
46753;SDS011;32500;50.620;3.400;2023-01-15T14:40:22;66.85;;;48.85;;
46753;SDS011;32500;50.620;3.400;2023-01-15T14:42:53;67.63;;;48.72;;
46753;SDS011;32500;50.620;3.400;2023-01-15T14:48:17;67.60;;;48.88;;
46753;SDS011;32500;50.620;3.400;2023-01-15T14:50:53;66.63;;;48.63;;
46753;SDS011;32500;50.620;3.400;2023-01-15T14:53:53;65.82;;;48.20;;
46753;SDS011;32500;50.620;3.400;2023-01-15T14:56:22;65.22;;;48.20;;
46753;SDS011;32500;50.620;3.400;2023-01-15T15:02:01;67.60;;;47.95;;
46753;SDS011;32500;50.620;3.400;2023-01-15T15:04:50;66.10;;;48.22;;
46753;SDS011;32500;50.620;3.400;2023-01-15T15:07:19;65.75;;;48.30;;
46753;SDS011;32500;50.620;3.400;2023-01-15T15:09:52;66.13;;;48.10;;
46753;SDS011;32500;50.620;3.400;2023-01-15T15:20:20;66.38;;;48.20;;
46753;SDS011;32500;50.620;3.400;2023-01-15T15:22:48;65.82;;;48.45;;
46753;SDS011;32500;50.620;3.400;2023-01-15T15:25:20;67.10;;;48.60;;
46753;SDS011;32500;50.620;3.400;2023-01-15T15:27:48;65.63;;;48.30;;
46753;SDS011;32500;50.620;3.400;2023-01-15T15:30:24;65.72;;;48.55;;
46753;SDS011;32500;50.620;3.400;2023-01-15T15:32:51;66.03;;;48.33;;
46753;SDS011;32500;50.620;3.400;2023-01-15T15:35:25;65.70;;;48.35;;
46753;SDS011;32500;50.620;3.400;2023-01-15T15:37:53;67.18;;;48.22;;
46753;SDS011;32500;50.620;3.400;2023-01-15T15:40:20;66.57;;;48.75;;
46753;SDS011;32500;50.620;3.400;2023-01-15T15:45:52;65.93;;;48.33;;
46753;SDS011;32500;50.620;3.400;2023-01-15T15:48:38;66.22;;;48.00;;
46753;SDS011;32500;50.620;3.400;2023-01-15T16:02:17;71.65;;;51.28;;
46753;SDS011;32500;50.620;3.400;2023-01-15T16:04:49;69.13;;;50.60;;
46753;SDS011;32500;50.620;3.400;2023-01-15T16:07:22;68.45;;;50.10;;
46753;SDS011;32500;50.620;3.400;2023-01-15T16:09:52;68.45;;;50.08;;
46753;SDS011;32500;50.620;3.400;2023-01-15T16:12:20;69.90;;;50.60;;
46753;SDS011;32500;50.620;3.400;2023-01-15T16:14:47;69.70;;;50.33;;
46753;SDS011;32500;50.620;3.400;2023-01-15T16:17:14;72.35;;;51.33;;
46753;SDS011;32500;50.620;3.400;2023-01-15T16:19:41;68.80;;;50.67;;
46753;SDS011;32500;50.620;3.400;2023-01-15T16:22:07;68.82;;;50.38;;
46753;SDS011;32500;50.620;3.400;2023-01-15T16:24:39;72.22;;;50.92;;
46753;SDS011;32500;50.620;3.400;2023-01-15T16:27:06;69.72;;;51.05;;
46753;SDS011;32500;50.620;3.400;2023-01-15T16:29:38;70.95;;;51.45;;
46753;SDS011;32500;50.620;3.400;2023-01-15T16:32:10;68.82;;;50.15;;
46753;SDS011;32500;50.620;3.400;2023-01-15T16:34:37;70.60;;;51.35;;
46753;SDS011;32500;50.620;3.400;2023-01-15T16:37:10;70.93;;;50.58;;
46753;SDS011;32500;50.620;3.400;2023-01-15T16:39:54;70.22;;;50.97;;
46753;SDS011;32500;50.620;3.400;2023-01-15T16:45:02;72.15;;;51.20;;
46753;SDS011;32500;50.620;3.400;2023-01-15T16:47:32;70.55;;;51.15;;
46753;SDS011;32500;50.620;3.400;2023-01-15T17:00:41;70.47;;;51.00;;
46753;SDS011;32500;50.620;3.400;2023-01-15T17:03:13;71.93;;;51.65;;
46753;SDS011;32500;50.620;3.400;2023-01-15T17:05:47;70.78;;;50.55;;
46753;SDS011;32500;50.620;3.400;2023-01-15T17:08:30;72.05;;;50.83;;
46753;SDS011;32500;50.620;3.400;2023-01-15T17:11:16;75.40;;;51.95;;